首页
METAR-TAF:

METAR-TAF

机场 :

Churchill, 曼尼托巴, 加拿大

纬度: 58-44N, 经度: 094-04W, 海拔: 28米

当前天气观测

该预报发布于55分钟前的00:00 UTC
风速16节,风向,有时为21节阵风
温度 0°C
湿度 93%
气压 1014 hPa
能見度: 24.1公里
阴天层高于700英尺

METAR: CYYQ 270000Z 08016G21KT 15SM OVC007 00/M01 A2994 RMK SC8 SLP144

时间: 19:55 (00:55 UTC)

预报

该预报发布于1小时和9分钟前的23:46 UTC
预报有效从27日的 00点(UTC)到 27日的 24点(UTC)
风速12节,风向东转东北,有时为22节阵风
能見度: 10公里
阴天层高于700英尺
短暂存在
从 27日的 00点(UTC)到 27日的 03点(UTC)
阴天层高于500英尺
从 27日的 0300点(UTC)
风速15节,风向东转东北,有时为25节阵风
能見度: 10公里
散云层高于500英尺
多云层高于2000英尺
短暂存在
从 27日的 03点(UTC)到 27日的 15点(UTC)
能見度: 8.0公里
多云层高于500英尺
(小) 冻, 雨, 轻雾
从 27日的 1500点(UTC)
风速20节,风向东北,有时为30节阵风
能見度: 10公里
多云层高于500英尺
(小) 冻, 雨

TAF: CYYQ 262346Z 2700/2724 07012G22KT P6SM OVC007 TEMPO 2700/2703 OVC005 FM270300 07015G25KT P6SM SCT005 BKN020 TEMPO 2703/2715 5SM -FZRA BR BKN005 FM271500 05020G30KT P6SM -FZRA BKN005 RMK NXT FCST BY 270600Z

超过4000个机场的气象观测和天气预报(METAR&TAF报告)。

可查询的气象台以黄色和红色小点在地图上表示。

将鼠标移到小点上方,可查看气象台名称。

然后点击查看天气观测和预报。

如需切换地图:点击带黑十字的绿色按钮放大地图;点击带横线的绿色按钮缩小地图;或者点击绿色箭头查看邻近地区的地图。


METAR-TAF: